Aérodrome :
LOGIN :

S'inscrire | Disclaimer

   EN    FR    IT 

 










Légende :    VFR   VFR Marginal   IFR   IFR Intensif   IFR Très Intensif
Visi : 
Plafond : 
>= 8 km
>= 3000ft
5 à 8 km
1000 à 3000 ft
1500m à 5 km
500 à 1000 ft
800 à 1500m
200 à 500 ft
< 800m
< 200 ft
Symboles :   Orages  Brouillard  Fortes neiges  Fortes précipitations  Vent > 20 kt
SIGMETs :   Divers  Orages  Givrage  Turbulence  Onde Orograph.  Cendres Volcan.







- Altitude de l'aérodrome : 188 ft
- Code IATA : ORB


ESOE - Örebro

DERNIER METAR :
  • 250420Z AUTO 30001KT 0150 R01/0450N R19/0700N FG NCD 10/09 Q1026

METARs EXPIRÉS :
  • 250350Z AUTO 17002KT 0300 R01/0750N R19/0600D FG NCD 10/09 Q1026
  • 250320Z AUTO 00000KT 0150 R01/0600N R19/1900D FG NCD 10/09 Q1026
  • 250250Z AUTO 00000KT 0150 R01/P2000N R19/1100N FG NCD 10/09 Q1026
  • 250220Z AUTO 00000KT 0400 R01/P2000N R19/1300U BCFG NCD 11/09 Q1026
  • 250150Z AUTO 30003KT 0200 R01/P2000N R19/P2000N BCFG NCD 11/10 Q1026

Prévision TAF périmée.
Pas de NOTAMs connus pour ce terrain.



MET'MAP, la Météo Aéronautique d'un coup d'oeil ! - Copyright ORBIFLY Décembre 2007 - Disclaimer

ORBIFLY MET'MAP TEAM :

Programmation & Développement : Alexandra Zaïnal
Conception & Développement : Baudouin d'Aumeries
Co-Programmation & Développement : Marc-Olivier Méhu
Soutien technique & logistique : Manuel Goepfert

Contact : metmap@orbifly.com




SOURCES & CREDITS :

   NOAA